createdAt,value
2023-05-04T00:00:29.676Z,12.80
2023-05-04T00:02:59.205Z,12.70
2023-05-04T00:05:27.449Z,12.50
2023-05-04T00:07:55.739Z,12.50
2023-05-04T00:10:23.871Z,12.50
2023-05-04T00:12:52.334Z,12.50
2023-05-04T00:15:20.489Z,12.50
2023-05-04T00:17:48.592Z,12.60
2023-05-04T00:20:18.902Z,12.60
2023-05-04T00:22:47.056Z,12.60
2023-05-04T00:25:15.406Z,12.60
2023-05-04T00:27:43.535Z,12.60
2023-05-04T00:30:13.067Z,12.60
2023-05-04T00:32:41.191Z,12.60
2023-05-04T00:35:10.288Z,12.60
2023-05-04T00:37:39.750Z,12.50
2023-05-04T00:40:09.770Z,12.50
2023-05-04T00:42:37.849Z,12.40
2023-05-04T00:45:07.124Z,12.40
2023-05-04T00:47:35.235Z,12.30
2023-05-04T00:50:03.943Z,12.20
2023-05-04T00:52:32.779Z,12.20
2023-05-04T00:55:03.417Z,12.10
2023-05-04T00:57:32.022Z,12.10
2023-05-04T01:00:00.229Z,12.10
2023-05-04T01:02:28.387Z,12.10
2023-05-04T01:04:56.576Z,12.10
2023-05-04T01:07:31.040Z,12.00
2023-05-04T01:10:05.416Z,12.00
2023-05-04T01:12:38.971Z,12.00
2023-05-04T01:15:09.214Z,11.90
2023-05-04T01:17:37.523Z,11.70
2023-05-04T01:20:07.376Z,11.60
2023-05-04T01:22:37.961Z,11.60
2023-05-04T01:25:07.816Z,11.70
2023-05-04T01:27:41.355Z,11.70
2023-05-04T01:30:15.904Z,11.70
2023-05-04T01:32:46.883Z,11.70
2023-05-04T01:35:16.526Z,11.80
2023-05-04T01:37:46.094Z,11.80
2023-05-04T01:40:14.275Z,11.90
2023-05-04T01:42:42.336Z,11.80
2023-05-04T01:45:11.807Z,11.40
2023-05-04T01:47:39.975Z,11.40
2023-05-04T01:50:08.736Z,11.50
2023-05-04T01:52:36.977Z,11.50
2023-05-04T01:55:07.241Z,11.60
2023-05-04T01:57:35.351Z,11.50
2023-05-04T02:00:04.901Z,11.50
2023-05-04T02:02:43.648Z,11.50
2023-05-04T02:05:15.264Z,10.70
2023-05-04T02:07:43.843Z,10.80
2023-05-04T02:10:13.670Z,10.80
2023-05-04T02:12:43.199Z,10.90
2023-05-04T02:15:12.293Z,11.00
2023-05-04T02:17:40.522Z,11.10
2023-05-04T02:20:10.205Z,11.20
2023-05-04T02:22:38.328Z,11.20
2023-05-04T02:25:07.622Z,11.20
2023-05-04T02:27:37.148Z,11.20
2023-05-04T02:30:06.529Z,11.20
2023-05-04T02:32:35.030Z,11.20
2023-05-04T02:35:03.331Z,11.20
2023-05-04T02:37:31.467Z,11.10
2023-05-04T02:39:59.663Z,11.00
2023-05-04T02:42:28.523Z,10.90
2023-05-04T02:44:59.320Z,10.80
2023-05-04T02:47:27.528Z,10.70
2023-05-04T02:49:55.673Z,10.80
2023-05-04T02:52:23.827Z,10.80
2023-05-04T02:54:53.186Z,10.80
2023-05-04T02:57:21.602Z,10.90
2023-05-04T02:59:49.784Z,11.00
2023-05-04T03:02:19.342Z,10.70
2023-05-04T03:04:47.559Z,10.90
2023-05-04T03:07:15.757Z,10.90
2023-05-04T03:09:46.007Z,10.60
2023-05-04T03:12:15.656Z,10.70
2023-05-04T03:14:44.202Z,10.70
2023-05-04T03:17:12.668Z,10.70
2023-05-04T03:19:43.803Z,10.70
2023-05-04T03:22:13.057Z,10.70
2023-05-04T03:24:41.241Z,10.70
2023-05-04T03:27:10.103Z,10.70
2023-05-04T03:29:39.537Z,10.60
2023-05-04T03:32:08.137Z,10.60
2023-05-04T03:34:37.177Z,10.60
2023-05-04T03:37:09.114Z,10.60
2023-05-04T03:39:37.325Z,10.60
2023-05-04T03:42:05.660Z,10.40
2023-05-04T03:44:33.874Z,10.50
2023-05-04T03:47:01.940Z,10.50
2023-05-04T03:49:31.063Z,10.50
2023-05-04T03:51:59.291Z,10.50
2023-05-04T03:54:29.073Z,10.40
2023-05-04T03:56:57.509Z,10.50
2023-05-04T03:59:26.323Z,10.40
2023-05-04T04:01:55.038Z,10.30
2023-05-04T04:04:23.392Z,10.30
2023-05-04T04:06:52.528Z,10.30
2023-05-04T04:09:20.953Z,10.20
2023-05-04T04:11:50.465Z,10.10
2023-05-04T04:14:20.188Z,10.10
2023-05-04T04:16:48.331Z,10.10
2023-05-04T04:19:16.413Z,10.00
2023-05-04T04:21:44.556Z,10.00
2023-05-04T04:24:12.612Z,10.00
2023-05-04T04:26:40.718Z,10.10
2023-05-04T04:29:10.283Z,10.10
2023-05-04T04:31:40.454Z,10.20
2023-05-04T04:34:08.705Z,10.20
2023-05-04T04:36:36.955Z,10.10
2023-05-04T04:39:06.083Z,10.00
2023-05-04T04:41:34.227Z,10.10
2023-05-04T04:44:02.383Z,10.10
2023-05-04T04:46:31.953Z,10.10
2023-05-04T04:49:00.112Z,10.00
2023-05-04T04:51:28.237Z,10.00
2023-05-04T04:53:56.700Z,10.00
2023-05-04T04:56:24.796Z,10.00
2023-05-04T04:58:53.407Z,10.10
2023-05-04T05:01:22.000Z,10.10
2023-05-04T05:03:51.619Z,10.00
2023-05-04T05:06:20.759Z,10.00
2023-05-04T05:08:48.994Z,10.10
2023-05-04T05:11:17.261Z,10.10
2023-05-04T05:13:45.525Z,10.10
2023-05-04T05:16:13.634Z,10.10
2023-05-04T05:18:42.350Z,10.20
2023-05-04T05:21:12.521Z,10.20
2023-05-04T05:23:40.645Z,10.20
2023-05-04T05:26:08.994Z,10.30
2023-05-04T05:28:37.170Z,10.30
2023-05-04T05:31:05.394Z,10.10
2023-05-04T05:33:33.796Z,10.10
2023-05-04T05:36:01.969Z,10.10
2023-05-04T05:38:31.501Z,10.30
2023-05-04T05:40:59.632Z,10.30
2023-05-04T05:43:27.774Z,10.30
2023-05-04T05:45:56.282Z,10.10
2023-05-04T05:48:24.771Z,10.20
2023-05-04T05:50:52.893Z,10.00
2023-05-04T05:53:21.071Z,10.00
2023-05-04T05:55:50.646Z,10.10
2023-05-04T05:58:18.777Z,10.10
2023-05-04T06:00:48.118Z,10.00
2023-05-04T06:03:16.206Z,10.10
2023-05-04T06:05:44.428Z,10.20
2023-05-04T06:08:12.708Z,10.30
2023-05-04T06:10:40.923Z,10.30
2023-05-04T06:13:10.587Z,10.40
2023-05-04T06:15:38.705Z,10.40
2023-05-04T06:18:07.018Z,10.40
2023-05-04T06:20:35.154Z,10.40
2023-05-04T06:23:03.260Z,10.40
2023-05-04T06:25:32.177Z,10.50
2023-05-04T06:28:00.275Z,10.70
2023-05-04T06:30:29.854Z,10.70
2023-05-04T06:32:58.096Z,10.80
2023-05-04T06:35:26.268Z,10.80
2023-05-04T06:37:54.454Z,10.90
2023-05-04T06:40:22.528Z,10.90
2023-05-04T06:42:51.022Z,10.90
2023-05-04T06:45:19.360Z,11.00
2023-05-04T06:47:48.993Z,11.00
2023-05-04T06:50:17.607Z,11.10
2023-05-04T06:52:46.376Z,11.20
2023-05-04T06:55:14.911Z,11.30
2023-05-04T06:57:43.030Z,11.40
2023-05-04T07:00:12.749Z,11.40
2023-05-04T07:02:40.952Z,11.60
2023-05-04T07:05:10.933Z,11.60
2023-05-04T07:07:39.622Z,11.60
2023-05-04T07:10:08.692Z,11.70
2023-05-04T07:12:36.946Z,11.80
2023-05-04T07:15:06.750Z,12.10
2023-05-04T07:17:34.970Z,12.20
2023-05-04T07:20:04.740Z,12.20
2023-05-04T07:22:34.915Z,12.30
2023-05-04T07:25:03.096Z,12.30
2023-05-04T07:27:31.340Z,12.40
2023-05-04T07:29:59.496Z,12.40
2023-05-04T07:32:28.032Z,12.50
2023-05-04T07:34:56.402Z,12.60
2023-05-04T07:37:24.602Z,12.70
2023-05-04T07:39:54.369Z,12.70
2023-05-04T07:42:23.600Z,12.80
2023-05-04T07:44:53.409Z,13.00
2023-05-04T07:47:22.498Z,13.10
2023-05-04T07:49:51.333Z,13.10
2023-05-04T07:52:20.147Z,13.20
2023-05-04T07:54:48.223Z,13.20
2023-05-04T07:57:17.718Z,13.30
2023-05-04T07:59:45.907Z,13.40
2023-05-04T08:02:14.113Z,13.50
2023-05-04T08:04:42.188Z,13.50
2023-05-04T08:07:10.580Z,13.50
2023-05-04T08:09:38.679Z,13.60
2023-05-04T08:12:07.721Z,13.70
2023-05-04T08:14:38.430Z,13.80
2023-05-04T08:17:06.603Z,13.90
2023-05-04T08:19:35.057Z,13.80
2023-05-04T08:22:04.005Z,13.90
2023-05-04T08:24:32.195Z,14.00
2023-05-04T08:27:08.054Z,14.10
2023-05-04T08:29:38.594Z,14.20
2023-05-04T08:32:07.552Z,14.30
2023-05-04T08:34:36.731Z,14.20
2023-05-04T08:37:05.110Z,14.30
2023-05-04T08:39:33.198Z,14.50
2023-05-04T08:42:02.260Z,14.60
2023-05-04T08:44:30.849Z,14.60
2023-05-04T08:47:00.383Z,14.80
2023-05-04T08:49:29.184Z,14.90
2023-05-04T08:51:58.637Z,15.00
2023-05-04T08:54:28.224Z,15.00
2023-05-04T08:56:57.075Z,15.00
2023-05-04T08:59:28.570Z,15.00
2023-05-04T09:02:00.314Z,15.20
2023-05-04T09:04:29.762Z,15.30
2023-05-04T09:06:58.648Z,15.40
2023-05-04T09:09:29.605Z,15.40
2023-05-04T09:11:59.366Z,15.60
2023-05-04T09:14:33.707Z,15.60
2023-05-04T09:17:04.057Z,15.80
2023-05-04T09:19:34.759Z,15.80
2023-05-04T09:22:03.582Z,15.80
2023-05-04T09:24:31.981Z,15.90
2023-05-04T09:27:11.075Z,16.10
2023-05-04T09:29:40.758Z,16.20
2023-05-04T09:32:15.172Z,16.20
2023-05-04T09:34:50.720Z,16.60
2023-05-04T09:37:20.851Z,16.60
2023-05-04T09:39:56.322Z,16.60
2023-05-04T09:42:24.931Z,16.60
2023-05-04T09:45:03.986Z,16.70
2023-05-04T09:47:35.276Z,16.90
2023-05-04T09:50:20.178Z,16.90
2023-05-04T09:52:51.065Z,17.10
2023-05-04T09:55:21.142Z,17.20
2023-05-04T09:57:51.204Z,17.20
2023-05-04T10:00:20.328Z,17.20
2023-05-04T10:02:50.834Z,17.30
2023-05-04T10:05:21.809Z,17.20
2023-05-04T10:07:50.824Z,17.20
2023-05-04T10:10:19.149Z,17.50
2023-05-04T10:12:47.347Z,17.50
2023-05-04T10:15:17.010Z,17.70
2023-05-04T10:18:03.491Z,17.80
2023-05-04T10:21:00.700Z,17.80
2023-05-04T10:23:47.016Z,18.00
2023-05-04T10:26:32.070Z,18.10
2023-05-04T10:29:13.751Z,18.30
2023-05-04T10:31:43.007Z,18.40
2023-05-04T10:34:13.056Z,18.60
2023-05-04T10:36:42.352Z,18.70
2023-05-04T10:39:20.560Z,18.70
2023-05-04T10:42:02.848Z,18.90
2023-05-04T10:44:32.617Z,18.90
2023-05-04T10:47:02.694Z,18.80
2023-05-04T10:49:32.874Z,18.90
2023-05-04T10:52:12.611Z,18.90
2023-05-04T10:54:42.087Z,19.10
2023-05-04T10:57:13.757Z,19.00
2023-05-04T10:59:42.429Z,19.20
2023-05-04T11:02:10.677Z,19.30
2023-05-04T11:04:40.337Z,19.50
2023-05-04T11:07:09.010Z,19.50
2023-05-04T11:09:38.778Z,19.60
2023-05-04T11:12:10.449Z,19.70
2023-05-04T11:14:42.595Z,19.60
2023-05-04T11:17:27.436Z,19.70
2023-05-04T11:19:57.977Z,19.80
2023-05-04T11:22:26.236Z,19.70
2023-05-04T11:24:56.122Z,19.90
2023-05-04T11:27:26.080Z,20.00
2023-05-04T11:29:58.447Z,20.30
2023-05-04T11:32:37.975Z,20.30
2023-05-04T11:35:10.588Z,20.40
2023-05-04T11:37:42.930Z,20.40
2023-05-04T11:40:14.278Z,20.50
2023-05-04T11:42:43.753Z,20.50
2023-05-04T11:45:17.905Z,20.70
2023-05-04T11:47:47.156Z,20.70
2023-05-04T11:50:19.011Z,20.70
2023-05-04T11:52:48.023Z,20.70
2023-05-04T11:55:27.482Z,20.90
2023-05-04T11:57:59.616Z,21.10
2023-05-04T12:00:39.912Z,21.20
2023-05-04T12:03:09.402Z,21.20
2023-05-04T12:05:39.003Z,21.60
2023-05-04T12:08:08.856Z,21.70
2023-05-04T12:10:37.136Z,21.70
2023-05-04T12:13:15.935Z,21.50
2023-05-04T12:15:44.415Z,21.40
2023-05-04T12:18:23.106Z,21.50
2023-05-04T12:20:52.859Z,21.80
2023-05-04T12:23:21.000Z,21.90
2023-05-04T12:25:57.803Z,21.90
2023-05-04T12:28:27.801Z,21.70
2023-05-04T12:30:55.970Z,22.00
2023-05-04T12:33:25.364Z,22.00
2023-05-04T12:35:56.197Z,22.30
2023-05-04T12:38:25.670Z,22.20
2023-05-04T12:40:54.301Z,22.20
2023-05-04T12:43:23.073Z,22.40
2023-05-04T12:45:53.570Z,22.30
2023-05-04T12:48:22.331Z,22.40
2023-05-04T12:50:52.139Z,22.40
2023-05-04T12:53:22.339Z,22.20
2023-05-04T12:55:50.544Z,22.20
2023-05-04T12:58:18.682Z,22.40
2023-05-04T13:00:47.085Z,22.60
2023-05-04T13:03:17.514Z,22.80
2023-05-04T13:05:46.422Z,22.80
2023-05-04T13:08:14.540Z,22.90
2023-05-04T13:10:46.144Z,22.70
2023-05-04T13:13:16.225Z,22.90
2023-05-04T13:15:44.657Z,23.00
2023-05-04T13:18:13.621Z,23.10
2023-05-04T13:20:41.714Z,23.00
2023-05-04T13:23:09.774Z,22.90
2023-05-04T13:25:37.940Z,23.10
2023-05-04T13:28:07.463Z,23.10
2023-05-04T13:30:35.643Z,23.10
2023-05-04T13:33:13.344Z,23.10
2023-05-04T13:35:49.547Z,23.20
2023-05-04T13:38:17.885Z,23.10
2023-05-04T13:40:46.036Z,23.10
2023-05-04T13:43:15.516Z,23.20
2023-05-04T13:45:43.647Z,23.30
2023-05-04T13:48:11.971Z,23.10
2023-05-04T13:50:40.132Z,23.20
2023-05-04T13:53:08.266Z,23.10
2023-05-04T13:55:36.321Z,23.10
2023-05-04T13:58:05.139Z,23.30
2023-05-04T14:00:34.965Z,23.50
2023-05-04T14:03:03.333Z,23.60
2023-05-04T14:05:32.110Z,23.60
2023-05-04T14:08:00.267Z,23.60
2023-05-04T14:10:28.569Z,23.60
2023-05-04T14:12:56.769Z,23.70
2023-05-04T14:15:26.891Z,23.60
2023-05-04T14:17:56.640Z,23.70
2023-05-04T14:20:24.797Z,23.70
2023-05-04T14:22:52.943Z,23.80
2023-05-04T14:25:22.363Z,23.80
2023-05-04T14:27:50.518Z,23.90
2023-05-04T14:30:18.690Z,23.80
2023-05-04T14:32:47.093Z,23.80
2023-05-04T14:35:17.448Z,23.80
2023-05-04T14:37:49.283Z,23.80
2023-05-04T14:40:17.723Z,23.70
2023-05-04T14:42:45.870Z,23.80
2023-05-04T14:45:14.222Z,23.80
2023-05-04T14:47:43.161Z,23.80
2023-05-04T14:50:12.299Z,23.80
2023-05-04T14:52:41.886Z,23.80
2023-05-04T14:55:10.914Z,23.90
2023-05-04T14:57:39.116Z,24.00
2023-05-04T15:00:10.290Z,24.00
2023-05-04T15:02:39.211Z,24.00
2023-05-04T15:05:10.239Z,24.00
2023-05-04T15:07:38.694Z,24.10
2023-05-04T15:10:10.607Z,24.00
2023-05-04T15:12:39.586Z,23.90
2023-05-04T15:15:08.964Z,23.90
2023-05-04T15:17:37.178Z,23.90
2023-05-04T15:20:06.350Z,23.90
2023-05-04T15:22:34.872Z,23.90
2023-05-04T15:25:04.061Z,23.90
2023-05-04T15:27:33.573Z,23.90
2023-05-04T15:30:01.769Z,23.90
2023-05-04T15:32:29.873Z,23.90
2023-05-04T15:35:05.374Z,23.90
2023-05-04T15:37:34.601Z,23.90
2023-05-04T15:40:04.573Z,23.90
2023-05-04T15:42:34.440Z,24.00
2023-05-04T15:45:03.065Z,24.00
2023-05-04T15:47:32.024Z,24.00
2023-05-04T15:50:00.430Z,24.00
2023-05-04T15:52:28.515Z,23.90
2023-05-04T15:54:57.240Z,23.90
2023-05-04T15:57:25.401Z,24.00
2023-05-04T15:59:55.840Z,23.90
2023-05-04T16:02:24.394Z,24.00
2023-05-04T16:04:53.600Z,24.00
2023-05-04T16:07:21.942Z,24.00
2023-05-04T16:09:50.258Z,24.00
2023-05-04T16:12:20.464Z,24.10
2023-05-04T16:14:49.005Z,24.00
2023-05-04T16:17:18.689Z,24.00
2023-05-04T16:19:46.988Z,24.00
2023-05-04T16:22:15.265Z,24.00
2023-05-04T16:24:43.467Z,24.00
2023-05-04T16:27:11.775Z,24.00
2023-05-04T16:29:39.855Z,24.00
2023-05-04T16:32:08.515Z,24.00
2023-05-04T16:34:38.478Z,23.90
2023-05-04T16:37:07.435Z,23.90
2023-05-04T16:39:37.658Z,23.90
2023-05-04T16:42:06.231Z,23.90
2023-05-04T16:44:34.441Z,23.90
2023-05-04T16:47:02.714Z,23.80
2023-05-04T16:49:31.205Z,23.70
2023-05-04T16:52:00.678Z,23.70
2023-05-04T16:54:29.023Z,23.80
2023-05-04T16:56:57.157Z,23.80
2023-05-04T16:59:25.200Z,23.70
2023-05-04T17:01:53.416Z,23.60
2023-05-04T17:04:21.510Z,23.60
2023-05-04T17:06:50.583Z,23.60
2023-05-04T17:09:19.977Z,23.70
2023-05-04T17:11:48.179Z,23.60
2023-05-04T17:14:16.305Z,23.50
2023-05-04T17:16:44.357Z,23.50
2023-05-04T17:19:12.445Z,23.50
2023-05-04T17:21:40.927Z,23.40
2023-05-04T17:24:09.320Z,23.40
2023-05-04T17:26:38.933Z,23.30
2023-05-04T17:29:08.278Z,23.30
2023-05-04T17:31:36.539Z,23.30
2023-05-04T17:34:04.786Z,23.40
2023-05-04T17:36:33.287Z,23.30
2023-05-04T17:39:01.462Z,23.30
2023-05-04T17:41:29.848Z,23.30
2023-05-04T17:43:59.464Z,23.30
2023-05-04T17:46:27.812Z,23.40
2023-05-04T17:48:56.635Z,23.50
2023-05-04T17:51:24.802Z,23.60
2023-05-04T17:53:54.103Z,23.60
2023-05-04T17:56:22.281Z,23.70
2023-05-04T17:58:50.692Z,23.70
2023-05-04T18:01:20.847Z,23.60
2023-05-04T18:03:49.205Z,23.60
2023-05-04T18:06:17.519Z,23.60
2023-05-04T18:08:45.884Z,23.50
2023-05-04T18:11:14.008Z,23.50
2023-05-04T18:13:42.130Z,23.50
2023-05-04T18:16:10.503Z,23.50
2023-05-04T18:18:40.606Z,23.40
2023-05-04T18:21:08.726Z,23.40
2023-05-04T18:23:36.822Z,23.30
2023-05-04T18:26:05.174Z,23.30
2023-05-04T18:28:33.292Z,23.30
2023-05-04T18:31:01.384Z,23.20
2023-05-04T18:33:31.372Z,23.10
2023-05-04T18:36:00.904Z,23.10
2023-05-04T18:38:29.037Z,23.10
2023-05-04T18:40:57.189Z,23.00
2023-05-04T18:43:25.478Z,23.00
2023-05-04T18:45:53.624Z,22.90
2023-05-04T18:48:22.290Z,22.80
2023-05-04T18:50:57.212Z,22.80
2023-05-04T18:53:27.166Z,22.80
2023-05-04T18:56:02.716Z,22.70
2023-05-04T18:58:30.937Z,22.60
2023-05-04T19:00:59.302Z,22.50
2023-05-04T19:03:27.555Z,22.40
2023-05-04T19:05:56.422Z,22.30
2023-05-04T19:08:25.918Z,22.30
2023-05-04T19:10:59.116Z,22.10
2023-05-04T19:13:27.311Z,22.10
2023-05-04T19:15:55.540Z,22.00
2023-05-04T19:18:24.609Z,21.90
2023-05-04T19:20:52.797Z,21.80
2023-05-04T19:23:20.911Z,21.70
2023-05-04T19:25:50.403Z,21.60
2023-05-04T19:28:19.050Z,21.50
2023-05-04T19:30:47.118Z,21.40
2023-05-04T19:33:16.680Z,21.30
2023-05-04T19:35:44.812Z,21.30
2023-05-04T19:38:12.957Z,21.20
2023-05-04T19:40:42.860Z,21.10
2023-05-04T19:43:12.472Z,21.00
2023-05-04T19:45:40.910Z,21.00
2023-05-04T19:48:09.248Z,20.90
2023-05-04T19:50:37.473Z,20.90
2023-05-04T19:53:05.669Z,20.80
2023-05-04T19:55:34.175Z,20.80
2023-05-04T19:58:02.341Z,20.70
2023-05-04T20:00:31.918Z,20.60
2023-05-04T20:03:00.549Z,20.50
2023-05-04T20:05:29.098Z,20.50
2023-05-04T20:07:57.554Z,20.40
2023-05-04T20:10:25.725Z,20.40
2023-05-04T20:12:56.606Z,20.30
2023-05-04T20:15:24.833Z,20.20
2023-05-04T20:17:54.472Z,20.20
2023-05-04T20:20:22.639Z,20.20
2023-05-04T20:22:52.841Z,20.20
2023-05-04T20:25:21.380Z,20.10
2023-05-04T20:27:52.286Z,20.00
2023-05-04T20:30:20.512Z,20.00
2023-05-04T20:32:49.390Z,19.90
2023-05-04T20:35:19.148Z,19.80
2023-05-04T20:37:47.821Z,19.80
2023-05-04T20:40:17.155Z,19.80
2023-05-04T20:42:45.477Z,19.80
2023-05-04T20:45:14.011Z,19.80
2023-05-04T20:47:42.677Z,19.70
2023-05-04T20:50:12.024Z,19.70
2023-05-04T20:52:42.566Z,19.60
2023-05-04T20:55:11.314Z,19.50
2023-05-04T20:57:39.604Z,19.40
2023-05-04T21:00:09.385Z,19.30
2023-05-04T21:02:37.972Z,19.20
2023-05-04T21:05:06.988Z,19.10
2023-05-04T21:07:35.109Z,19.10
2023-05-04T21:10:05.073Z,19.00
2023-05-04T21:12:33.279Z,19.00
2023-05-04T21:15:01.378Z,19.00
2023-05-04T21:17:29.555Z,19.00
2023-05-04T21:19:57.986Z,18.90
2023-05-04T21:22:26.180Z,18.90
2023-05-04T21:24:54.457Z,18.90
2023-05-04T21:27:24.096Z,18.90
2023-05-04T21:29:52.342Z,18.90
2023-05-04T21:32:20.856Z,18.50
2023-05-04T21:34:53.179Z,17.80
2023-05-04T21:37:21.506Z,17.90
2023-05-04T21:39:54.514Z,18.20
2023-05-04T21:42:24.289Z,18.30
2023-05-04T21:44:56.055Z,18.50
2023-05-04T21:47:24.755Z,18.50
2023-05-04T21:49:53.384Z,18.50
2023-05-04T21:52:21.917Z,18.60
2023-05-04T21:54:50.637Z,18.60
2023-05-04T21:57:19.308Z,18.60
2023-05-04T21:59:50.295Z,18.60
2023-05-04T22:02:18.785Z,18.50
2023-05-04T22:04:46.890Z,18.50
2023-05-04T22:07:15.614Z,18.40
2023-05-04T22:09:43.891Z,18.40
2023-05-04T22:12:12.060Z,18.40
2023-05-04T22:14:42.299Z,18.40
2023-05-04T22:17:12.164Z,18.40
2023-05-04T22:19:40.697Z,18.40
2023-05-04T22:22:08.869Z,18.40
2023-05-04T22:24:37.635Z,18.30
2023-05-04T22:27:05.963Z,18.30
2023-05-04T22:29:36.084Z,18.20
2023-05-04T22:32:04.807Z,18.20
2023-05-04T22:34:35.450Z,18.10
2023-05-04T22:37:03.985Z,18.00
2023-05-04T22:39:32.117Z,18.00
2023-05-04T22:42:02.104Z,18.00
2023-05-04T22:44:30.277Z,18.00
2023-05-04T22:46:58.583Z,18.00
2023-05-04T22:49:28.232Z,18.00
2023-05-04T22:51:57.739Z,18.10
2023-05-04T22:54:25.884Z,18.10
2023-05-04T22:56:54.105Z,18.00
2023-05-04T22:59:22.303Z,18.00
2023-05-04T23:01:50.703Z,18.00
2023-05-04T23:04:18.904Z,17.90
2023-05-04T23:06:47.123Z,17.90
2023-05-04T23:09:17.600Z,17.90
2023-05-04T23:11:46.182Z,17.70
2023-05-04T23:14:14.818Z,17.80
2023-05-04T23:16:43.004Z,17.90
2023-05-04T23:19:11.066Z,17.90
2023-05-04T23:21:39.639Z,17.90
2023-05-04T23:24:07.983Z,17.90
2023-05-04T23:26:38.049Z,17.80
2023-05-04T23:29:06.596Z,17.80
2023-05-04T23:31:34.732Z,17.90
2023-05-04T23:34:02.888Z,17.90
2023-05-04T23:36:30.976Z,17.90
2023-05-04T23:38:59.063Z,17.60
2023-05-04T23:41:27.221Z,17.70
2023-05-04T23:43:59.207Z,17.70
2023-05-04T23:46:27.426Z,17.60
2023-05-04T23:48:56.118Z,17.50
2023-05-04T23:51:24.243Z,17.40
2023-05-04T23:53:52.406Z,17.40
2023-05-04T23:56:20.430Z,17.40
2023-05-04T23:58:48.724Z,17.40
